Главная страница
METAR-TAF:

METAR-TAF

Аэропорты :

Вадсё, Норвегия

широта: 70-04N, долгота: 029-51E, высота над уровнем моря: 3 м

Текущие метеонаблюдения

Эта сводка был подготовлена 5 часа и 43 минут назад, в 01:20 UTC
Ветер 10 Узел от западно-северо-западный
Температура 3°C
Влажность 100%
Давление 1012 hPa
Видимость 10 км и более
небольшая облачность на высоте 1200 фута
Рассеянная облачность на высоте 2500 фута

METAR: ENVD 200120Z 30010KT 9999 FEW012 BKN025 03/03 Q1012

Время: 09:03 (07:03 UTC)

Прогноз

Эта сводка был подготовлена 10 часа и 17 минут назад, в 20:46 UTC
Прогноз действительный с 19-го 20 UTC до 19-го 23 UTC
Ветер 9 Узел от западный
Видимость 10 км и более
небольшая облачность на высоте 1000 фута
Рассеянная облачность на высоте 2500 фута
временами
С 19-го 20 UTC до 19-го 23 UTC
Рассеянная облачность на высоте 800 фута

TAF: ENVD 192046Z 1920/1923 28009KT 9999 FEW010 BKN025 TEMPO 1920/1923 BKN008

Метеонаблюдения и прогнозы для более 4000 аэропортов (сводки METAR и TAF).

Имеющиеся станции представлены на карте желтыми и красными точками.

Чтобы увидеть название станции, наведите на нее мышь.

Затем щелкните, чтобы увидеть метеонаблюдения и метеопрогнозы.

Управление картой: чтобы увеличить масштаб, щелкните зеленые кнопки с черным крестиком; чтобы уменьшить масштаб, щелкните зеленую кнопку с тире; для просмотра соседних карт щелкайте зеленые стрелки.


METAR-TAF: